createdAt,value
2023-05-10T03:26:34.592Z,22.50
2023-05-10T03:29:20.128Z,22.52
2023-05-10T03:32:05.381Z,22.50
2023-05-10T03:34:50.867Z,22.54
2023-05-10T03:37:36.049Z,22.53
2023-05-10T03:40:21.166Z,22.58
2023-05-10T03:43:08.543Z,22.56
2023-05-10T03:45:53.731Z,22.58
2023-05-10T03:48:38.874Z,22.57
2023-05-10T03:51:24.180Z,22.50
2023-05-10T03:54:10.291Z,22.56
2023-05-10T03:56:55.724Z,22.48
2023-05-10T03:59:41.016Z,22.50
2023-05-10T04:02:26.344Z,22.43
2023-05-10T04:05:11.477Z,21.31
2023-05-10T04:07:56.844Z,21.12
2023-05-10T04:10:42.144Z,20.63
2023-05-10T04:13:27.590Z,20.17
2023-05-10T04:16:15.879Z,20.28
2023-05-10T04:19:01.067Z,20.84
2023-05-10T04:21:46.351Z,21.41
2023-05-10T04:24:31.809Z,21.64
2023-05-10T04:27:17.338Z,21.82
2023-05-10T04:30:02.630Z,21.84
2023-05-10T04:32:48.075Z,21.95
2023-05-10T04:35:33.255Z,22.03
2023-05-10T04:38:18.480Z,22.11
2023-05-10T04:41:03.684Z,22.22
2023-05-10T04:43:49.175Z,22.18
2023-05-10T04:46:34.453Z,22.28
2023-05-10T04:49:19.428Z,22.30
2023-05-10T04:52:04.475Z,22.24
2023-05-10T04:54:49.523Z,22.32
2023-05-10T04:57:34.628Z,22.25
2023-05-10T05:00:19.779Z,22.37
2023-05-10T05:03:04.903Z,22.37
2023-05-10T05:05:49.929Z,22.37
2023-05-10T05:08:35.477Z,22.33
2023-05-10T05:11:20.753Z,22.27
2023-05-10T05:14:06.064Z,22.19
2023-05-10T05:16:51.569Z,22.17
2023-05-10T05:19:36.785Z,21.92
2023-05-10T05:22:22.298Z,21.97
2023-05-10T05:25:07.628Z,21.72
2023-05-10T05:27:53.007Z,21.88
2023-05-10T05:30:38.427Z,22.15
2023-05-10T05:33:23.687Z,22.32
2023-05-10T05:36:09.060Z,21.86
2023-05-10T05:38:54.075Z,21.84
2023-05-10T05:41:39.484Z,22.10
2023-05-10T05:44:24.723Z,22.32
2023-05-10T05:47:10.791Z,22.44
2023-05-10T05:49:55.975Z,22.59
2023-05-10T05:52:41.441Z,22.61
2023-05-10T05:55:26.801Z,22.57
2023-05-10T05:58:11.780Z,22.64
2023-05-10T06:00:57.100Z,22.68
2023-05-10T06:03:42.684Z,22.58
2023-05-10T06:06:28.241Z,22.73
2023-05-10T06:09:13.600Z,22.78
2023-05-10T06:11:59.419Z,22.74
2023-05-10T06:14:44.573Z,22.74
2023-05-10T06:17:30.186Z,22.67
2023-05-10T06:20:15.596Z,22.73
2023-05-10T06:23:00.999Z,22.68
2023-05-10T06:25:46.228Z,22.79
2023-05-10T06:28:31.468Z,22.69
2023-05-10T06:31:16.715Z,22.69
2023-05-10T06:34:02.114Z,22.65
2023-05-10T06:36:47.407Z,22.73
2023-05-10T06:39:32.805Z,22.77
2023-05-10T06:42:18.379Z,22.77
2023-05-10T06:45:03.716Z,22.46
2023-05-10T06:47:49.098Z,22.62
2023-05-10T06:50:34.515Z,22.74
2023-05-10T06:53:19.834Z,22.67
2023-05-10T06:56:05.340Z,22.74
2023-05-10T06:58:50.617Z,22.80
2023-05-10T07:01:36.121Z,22.91
2023-05-10T07:04:21.397Z,22.93
2023-05-10T07:07:06.810Z,22.96
2023-05-10T07:09:52.198Z,22.80
2023-05-10T07:12:37.643Z,22.45
2023-05-10T07:15:23.029Z,22.51
2023-05-10T07:18:08.615Z,22.54
2023-05-10T07:20:53.944Z,22.67
2023-05-10T07:23:39.377Z,22.82
2023-05-10T07:26:24.719Z,22.77
2023-05-10T07:29:10.041Z,22.64
2023-05-10T07:31:57.930Z,22.67
2023-05-10T07:34:43.638Z,22.68
2023-05-10T07:37:28.909Z,22.57
2023-05-10T07:40:14.170Z,22.69
2023-05-10T07:42:59.476Z,22.82
2023-05-10T07:45:44.626Z,22.68
2023-05-10T07:48:29.946Z,22.78
2023-05-10T07:51:15.336Z,22.50
2023-05-10T07:54:00.437Z,22.46
2023-05-10T07:56:45.847Z,22.30
2023-05-10T07:59:31.063Z,22.33
2023-05-10T08:02:16.135Z,22.42
2023-05-10T08:05:01.457Z,22.52
2023-05-10T08:07:46.555Z,22.52
2023-05-10T08:10:31.988Z,22.55
2023-05-10T08:13:17.262Z,22.54
2023-05-10T08:16:02.768Z,22.60
2023-05-10T08:18:47.818Z,22.65
2023-05-10T08:21:33.110Z,22.30
2023-05-10T08:24:18.186Z,22.34
2023-05-10T08:27:03.682Z,22.61
2023-05-10T08:29:50.475Z,22.65
2023-05-10T08:32:35.918Z,22.58
2023-05-10T08:35:21.090Z,22.50
2023-05-10T08:38:06.102Z,22.66
2023-05-10T08:40:51.546Z,22.48
2023-05-10T08:43:37.009Z,22.68
2023-05-10T08:46:22.374Z,22.77
2023-05-10T08:49:07.739Z,22.80
2023-05-10T08:51:53.096Z,22.79
2023-05-10T08:54:38.471Z,22.77
2023-05-10T08:57:23.723Z,22.79
2023-05-10T09:00:09.067Z,22.87
2023-05-10T09:02:54.425Z,22.90
2023-05-10T09:05:39.804Z,22.83
2023-05-10T09:08:25.211Z,22.86
2023-05-10T09:11:10.553Z,22.90
2023-05-10T09:13:55.867Z,22.85
2023-05-10T09:16:41.007Z,22.88
2023-05-10T09:19:25.847Z,21.65
2023-05-10T09:22:10.961Z,21.55
2023-05-10T09:24:56.338Z,21.65
2023-05-10T09:27:41.811Z,21.18
2023-05-10T09:30:27.122Z,21.48
2023-05-10T09:33:12.722Z,21.34
2023-05-10T09:35:58.102Z,21.59
2023-05-10T09:38:43.562Z,21.54
2023-05-10T09:41:29.160Z,21.46
2023-05-10T09:44:14.460Z,21.53
2023-05-10T09:47:00.749Z,21.40
2023-05-10T09:49:45.957Z,21.56
2023-05-10T09:52:31.431Z,21.99
2023-05-10T09:55:17.151Z,21.72
2023-05-10T09:58:02.343Z,22.17
2023-05-10T10:00:47.745Z,22.32
2023-05-10T10:03:33.126Z,22.40
2023-05-10T10:06:29.037Z,22.59
2023-05-10T10:09:14.984Z,22.82
2023-05-10T10:12:00.472Z,22.67
2023-05-10T10:14:45.824Z,22.77
2023-05-10T10:17:31.209Z,22.70
2023-05-10T10:20:16.905Z,22.67
2023-05-10T10:23:02.063Z,22.87
2023-05-10T10:25:47.506Z,23.12
2023-05-10T10:28:33.016Z,23.09
2023-05-10T10:31:18.314Z,23.11
2023-05-10T10:34:03.426Z,23.13
2023-05-10T10:36:48.745Z,23.05
2023-05-10T10:39:34.189Z,23.08
2023-05-10T10:42:19.391Z,23.31
2023-05-10T10:45:07.802Z,23.14
2023-05-10T10:47:52.985Z,23.23
2023-05-10T10:50:38.201Z,23.16
2023-05-10T10:53:23.612Z,23.17
2023-05-10T10:56:08.900Z,23.16
2023-05-10T10:58:54.139Z,23.20
2023-05-10T11:01:39.172Z,23.16
2023-05-10T11:04:24.311Z,23.21
2023-05-10T11:07:09.619Z,23.14
2023-05-10T11:09:55.111Z,23.18
2023-05-10T11:12:40.340Z,23.29
2023-05-10T11:15:25.722Z,23.17
2023-05-10T11:18:11.123Z,23.27
2023-05-10T11:20:56.604Z,23.22
2023-05-10T11:23:41.949Z,23.24
2023-05-10T11:26:29.698Z,23.14
2023-05-10T11:29:14.957Z,23.30
2023-05-10T11:32:00.255Z,23.25
2023-05-10T11:34:45.561Z,23.11
2023-05-10T11:37:30.986Z,23.24
2023-05-10T11:40:16.600Z,23.26
2023-05-10T11:43:02.158Z,23.34
2023-05-10T11:45:47.339Z,23.33
2023-05-10T11:48:32.453Z,23.23
2023-05-10T11:51:17.893Z,23.34
2023-05-10T11:54:03.279Z,23.24
2023-05-10T11:56:48.596Z,23.32
2023-05-10T11:59:33.949Z,23.43
2023-05-10T12:02:19.609Z,23.45
2023-05-10T12:05:05.917Z,23.51
2023-05-10T12:07:51.315Z,23.34
2023-05-10T12:10:36.622Z,23.32
2023-05-10T12:13:22.146Z,23.25
2023-05-10T12:16:07.612Z,23.55
2023-05-10T12:18:52.915Z,23.30
2023-05-10T12:21:38.274Z,23.36
2023-05-10T12:24:23.537Z,23.50
2023-05-10T12:30:12.130Z,23.71
2023-05-10T12:32:57.355Z,23.61
2023-05-10T12:35:43.165Z,23.64
2023-05-10T12:38:28.233Z,23.67
2023-05-10T12:41:13.232Z,23.68
2023-05-10T12:43:58.305Z,23.82
2023-05-10T12:46:43.481Z,23.81
2023-05-10T12:49:28.903Z,23.64
2023-05-10T12:52:14.177Z,23.80
2023-05-10T12:54:59.620Z,23.78
2023-05-10T12:57:44.758Z,23.79
2023-05-10T13:00:30.004Z,23.79
2023-05-10T13:03:15.391Z,23.81
2023-05-10T13:06:00.647Z,23.77
2023-05-10T13:08:45.975Z,23.75
2023-05-10T13:11:33.058Z,23.77
2023-05-10T13:14:19.809Z,23.70
2023-05-10T13:17:05.061Z,23.77
2023-05-10T13:19:50.209Z,23.77
2023-05-10T13:22:40.134Z,23.73
2023-05-10T13:25:25.595Z,23.83
2023-05-10T13:28:10.903Z,23.74
2023-05-10T13:30:55.868Z,23.67
2023-05-10T13:33:40.952Z,23.82
2023-05-10T13:36:29.096Z,23.92
2023-05-10T13:39:14.219Z,23.93
2023-05-10T13:41:59.507Z,23.90
2023-05-10T13:44:45.523Z,23.96
2023-05-10T13:47:30.987Z,23.90
2023-05-10T13:50:16.320Z,23.77
2023-05-10T13:53:01.534Z,23.76
2023-05-10T13:55:46.688Z,23.87
2023-05-10T13:58:32.163Z,23.79
2023-05-10T14:01:17.619Z,23.77
2023-05-10T14:04:02.738Z,23.71
2023-05-10T14:06:48.153Z,23.78
2023-05-10T14:09:33.415Z,23.74
2023-05-10T14:12:18.929Z,23.76
2023-05-10T14:15:07.398Z,23.82
2023-05-10T14:17:52.572Z,23.75
2023-05-10T14:20:37.949Z,23.91
2023-05-10T14:23:23.161Z,23.85
2023-05-10T14:26:08.453Z,23.82
2023-05-10T14:28:53.859Z,23.74
2023-05-10T14:31:39.326Z,23.75
2023-05-10T14:34:24.879Z,23.82
2023-05-10T14:37:10.100Z,23.68
2023-05-10T14:39:57.134Z,23.61
2023-05-10T14:42:42.517Z,23.85
2023-05-10T14:45:27.773Z,23.80
2023-05-10T14:48:12.982Z,23.84
2023-05-10T14:50:58.227Z,23.88
2023-05-10T14:53:43.547Z,23.78
2023-05-10T14:56:28.847Z,23.78
2023-05-10T14:59:14.030Z,23.85
2023-05-10T15:01:59.952Z,23.86
2023-05-10T15:04:45.841Z,23.94
2023-05-10T15:07:34.665Z,24.10
2023-05-10T15:10:19.903Z,24.03
2023-05-10T15:13:05.157Z,23.72
2023-05-10T15:15:50.461Z,23.88
2023-05-10T15:18:35.861Z,23.80
2023-05-10T15:21:21.083Z,23.89
2023-05-10T15:24:06.458Z,23.65
2023-05-10T15:26:51.551Z,23.89
2023-05-10T15:29:37.096Z,23.86
2023-05-10T15:32:22.522Z,23.72
2023-05-10T15:35:08.207Z,23.70
2023-05-10T15:37:53.570Z,23.66
2023-05-10T15:40:38.919Z,23.67
2023-05-10T15:43:24.244Z,23.74
2023-05-10T15:46:09.533Z,23.76
2023-05-10T15:48:54.860Z,23.63
2023-05-10T15:51:39.879Z,23.71
2023-05-10T15:54:25.282Z,23.75
2023-05-10T15:57:10.779Z,23.32
2023-05-10T15:59:56.005Z,23.00
2023-05-10T16:02:41.097Z,23.13
2023-05-10T16:05:26.172Z,23.15
2023-05-10T16:08:11.534Z,23.07
2023-05-10T16:10:56.816Z,23.22
2023-05-10T16:13:42.168Z,23.41
2023-05-10T16:16:27.695Z,23.67
2023-05-10T16:19:12.900Z,23.61
2023-05-10T16:21:58.266Z,23.45
2023-05-10T16:24:43.354Z,23.46
2023-05-10T16:27:28.579Z,23.37
2023-05-10T16:30:13.686Z,23.53
2023-05-10T16:32:58.846Z,23.57
2023-05-10T16:35:44.271Z,23.60
2023-05-10T16:38:29.592Z,23.76
2023-05-10T16:41:14.908Z,23.59
2023-05-10T16:44:00.171Z,23.55
2023-05-10T16:46:48.403Z,23.64
2023-05-10T16:49:33.455Z,23.60
2023-05-10T16:52:18.718Z,23.50
2023-05-10T16:55:04.011Z,23.60
2023-05-10T16:57:49.350Z,23.42
2023-05-10T17:00:34.595Z,23.59
2023-05-10T17:03:20.140Z,23.52
2023-05-10T17:06:05.316Z,23.46
2023-05-10T17:08:50.718Z,23.52
2023-05-10T17:11:35.707Z,23.43
2023-05-10T17:14:21.245Z,23.32
2023-05-10T17:17:06.591Z,23.39
2023-05-10T17:19:52.020Z,23.36
2023-05-10T17:22:37.495Z,23.46
2023-05-10T17:25:22.664Z,23.44
2023-05-10T17:28:08.209Z,23.47
2023-05-10T17:30:54.683Z,23.15
2023-05-10T17:33:39.960Z,23.28
2023-05-10T17:36:25.427Z,23.35
2023-05-10T17:39:10.698Z,23.49
2023-05-10T17:41:56.127Z,23.68
2023-05-10T17:44:41.411Z,23.71
2023-05-10T17:47:26.762Z,23.70
2023-05-10T17:50:12.350Z,23.69
2023-05-10T17:52:57.823Z,23.61
2023-05-10T17:55:43.365Z,23.69
2023-05-10T17:58:28.975Z,23.53
2023-05-10T18:01:14.375Z,23.57
2023-05-10T18:03:59.976Z,23.51
2023-05-10T18:06:45.303Z,23.52
2023-05-10T18:09:30.735Z,23.44
2023-05-10T18:12:16.144Z,23.46
2023-05-10T18:15:01.534Z,23.47
2023-05-10T18:17:47.233Z,23.35
2023-05-10T18:20:32.728Z,23.35
2023-05-10T18:23:18.286Z,23.40
2023-05-10T18:26:03.620Z,23.30
2023-05-10T18:28:49.009Z,23.22
2023-05-10T18:31:34.622Z,23.36
2023-05-10T18:34:19.864Z,23.36
2023-05-10T18:37:05.304Z,23.22
2023-05-10T18:39:50.833Z,23.12
2023-05-10T18:42:36.318Z,23.19
2023-05-10T18:45:21.626Z,23.19
2023-05-10T18:48:07.041Z,23.10
2023-05-10T18:50:52.445Z,22.88
2023-05-10T18:53:39.087Z,22.75
2023-05-10T18:56:24.386Z,22.62
2023-05-10T18:59:12.756Z,22.44
2023-05-10T19:01:58.125Z,22.55
2023-05-10T19:04:43.555Z,22.70
2023-05-10T19:07:29.026Z,22.69
2023-05-10T19:10:20.622Z,22.64
2023-05-10T19:13:06.015Z,22.57
2023-05-10T19:15:51.450Z,22.62
2023-05-10T19:18:38.906Z,22.54
2023-05-10T19:21:24.822Z,22.73
2023-05-10T19:24:11.225Z,22.74
2023-05-10T19:26:56.708Z,22.79
2023-05-10T19:29:42.153Z,22.87
2023-05-10T19:32:27.502Z,23.08
2023-05-10T19:35:12.863Z,23.04
2023-05-10T19:37:58.342Z,23.08
2023-05-10T19:40:45.110Z,23.13
2023-05-10T19:43:32.749Z,23.15
2023-05-10T19:46:20.515Z,23.29
2023-05-10T19:49:05.808Z,23.19
2023-05-10T19:51:51.265Z,23.21
2023-05-10T19:54:36.469Z,23.12
2023-05-10T19:57:21.983Z,23.16
2023-05-10T20:00:07.375Z,23.22
2023-05-10T20:02:52.700Z,23.16
2023-05-10T20:05:38.099Z,23.26
2023-05-10T20:08:23.533Z,23.20
2023-05-10T20:11:08.932Z,23.10
2023-05-10T20:13:54.329Z,22.98
2023-05-10T20:16:39.681Z,23.23
2023-05-10T20:19:28.185Z,23.22
2023-05-10T20:22:13.554Z,23.31
2023-05-10T20:24:58.930Z,23.31
2023-05-10T20:27:44.317Z,23.18
2023-05-10T20:30:29.559Z,23.20
2023-05-10T20:33:15.010Z,22.78
2023-05-10T20:36:00.498Z,22.80
2023-05-10T20:38:45.842Z,22.89
2023-05-10T20:41:31.123Z,22.94
2023-05-10T20:44:17.659Z,22.96
2023-05-10T20:47:03.004Z,22.91
2023-05-10T20:49:48.401Z,22.98
2023-05-10T20:52:33.848Z,23.07
2023-05-10T20:55:19.165Z,22.90
2023-05-10T20:58:05.144Z,22.76
2023-05-10T21:00:50.563Z,22.94
2023-05-10T21:03:35.536Z,22.92
2023-05-10T21:06:20.942Z,22.90
2023-05-10T21:09:06.391Z,23.06
2023-05-10T21:11:51.862Z,22.98
2023-05-10T21:14:37.368Z,22.93
2023-05-10T21:17:22.717Z,22.92
2023-05-10T21:20:08.197Z,22.94
2023-05-10T21:22:53.561Z,23.04
2023-05-10T21:25:39.023Z,23.09
2023-05-10T21:28:24.548Z,23.14
2023-05-10T21:31:09.826Z,22.93
2023-05-10T21:33:55.315Z,23.06
2023-05-10T21:36:40.647Z,23.00
2023-05-10T21:39:26.097Z,22.80
2023-05-10T21:42:11.524Z,23.00
2023-05-10T21:44:56.540Z,23.12
2023-05-10T21:47:42.165Z,23.10
2023-05-10T21:50:27.446Z,23.02
2023-05-10T21:53:12.703Z,23.04
2023-05-10T21:55:58.055Z,23.06
2023-05-10T21:58:43.372Z,23.04
2023-05-10T22:01:28.566Z,23.04
2023-05-10T22:04:13.948Z,23.14
2023-05-10T22:06:59.268Z,23.07
2023-05-10T22:09:44.661Z,23.20
2023-05-10T22:12:29.817Z,23.09
2023-05-10T22:15:15.255Z,22.91
2023-05-10T22:18:00.594Z,23.03
2023-05-10T22:20:45.960Z,22.92
2023-05-10T22:23:31.141Z,23.01
2023-05-10T22:26:16.529Z,23.10
2023-05-10T22:29:01.796Z,23.05
2023-05-10T22:31:47.107Z,23.16
2023-05-10T22:34:32.505Z,23.11
2023-05-10T22:37:17.984Z,23.07
2023-05-10T22:40:03.270Z,23.06
2023-05-10T22:42:48.598Z,23.11
2023-05-10T22:45:33.762Z,23.07
2023-05-10T22:48:19.361Z,22.99
2023-05-10T22:51:04.439Z,23.06
2023-05-10T22:53:49.806Z,23.18
2023-05-10T22:56:35.155Z,23.08
